createdAt,value
2019-03-01T00:00:04.592Z,37.90
2019-03-01T00:02:32.007Z,48.23
2019-03-01T00:05:08.507Z,50.43
2019-03-01T00:07:51.161Z,38.53
2019-03-01T00:10:18.700Z,28.60
2019-03-01T00:12:48.890Z,38.40
2019-03-01T00:15:25.825Z,42.33
2019-03-01T00:18:05.252Z,39.10
2019-03-01T00:20:32.746Z,41.20
2019-03-01T00:23:06.527Z,40.00
2019-03-01T00:25:39.913Z,41.03
2019-03-01T00:28:07.397Z,41.57
2019-03-01T00:30:37.673Z,41.60
2019-03-01T00:33:11.167Z,46.70
2019-03-01T00:35:41.474Z,42.97
2019-03-01T00:38:27.210Z,48.57
2019-03-01T00:40:54.676Z,43.37
2019-03-01T00:43:31.044Z,51.97
2019-03-01T00:45:56.591Z,41.73
2019-03-01T00:48:22.150Z,43.37
2019-03-01T00:50:47.721Z,42.27
2019-03-01T00:53:13.274Z,44.30
2019-03-01T00:55:38.832Z,45.37
2019-03-01T00:58:04.391Z,52.07
2019-03-01T01:00:31.847Z,55.33
2019-03-01T01:02:57.413Z,43.90
2019-03-01T01:05:23.184Z,52.60
2019-03-01T01:07:48.952Z,55.70
2019-03-01T01:10:15.220Z,47.83
2019-03-01T01:12:40.905Z,45.57
2019-03-01T01:15:06.628Z,43.83
2019-03-01T01:17:33.217Z,49.93
2019-03-01T01:19:58.776Z,53.60
2019-03-01T01:22:24.363Z,51.23
2019-03-01T01:24:50.412Z,58.63
2019-03-01T01:27:16.020Z,58.27
2019-03-01T01:29:41.558Z,54.90
2019-03-01T01:32:07.376Z,58.10
2019-03-01T01:34:32.943Z,60.23
2019-03-01T01:36:58.596Z,66.57
2019-03-01T01:39:24.243Z,70.20
2019-03-01T01:41:49.778Z,55.50
2019-03-01T01:44:15.368Z,62.60
2019-03-01T01:46:40.911Z,59.67
2019-03-01T01:49:06.526Z,62.73
2019-03-01T01:51:32.058Z,76.90
2019-03-01T01:53:58.596Z,80.77
2019-03-01T01:56:24.260Z,79.17
2019-03-01T01:58:49.803Z,57.50
2019-03-01T02:01:15.346Z,57.87
2019-03-01T02:03:40.923Z,75.10
2019-03-01T02:06:06.551Z,67.67
2019-03-01T02:08:32.238Z,62.00
2019-03-01T02:10:57.771Z,74.93
2019-03-01T02:13:23.356Z,69.00
2019-03-01T02:15:49.066Z,63.07
2019-03-01T02:18:14.704Z,64.57
2019-03-01T02:20:40.289Z,70.27
2019-03-01T02:23:05.863Z,75.27
2019-03-01T02:25:31.540Z,60.30
2019-03-01T02:27:57.194Z,65.93
2019-03-01T02:30:27.207Z,62.20
2019-03-01T02:32:52.920Z,64.07
2019-03-01T02:35:18.696Z,63.43
2019-03-01T02:37:44.381Z,58.07
2019-03-01T02:40:11.136Z,60.77
2019-03-01T02:42:36.705Z,65.57
2019-03-01T02:45:03.672Z,57.53
2019-03-01T02:47:29.377Z,59.23
2019-03-01T02:49:55.017Z,60.27
2019-03-01T02:52:20.652Z,60.63
2019-03-01T02:54:46.254Z,64.23
2019-03-01T02:57:11.802Z,65.23
2019-03-01T02:59:37.529Z,66.97
2019-03-01T03:02:04.085Z,61.67
2019-03-01T03:04:29.878Z,70.47
2019-03-01T03:07:04.051Z,65.60
2019-03-01T03:09:29.736Z,72.93
2019-03-01T03:11:55.304Z,73.77
2019-03-01T03:14:20.865Z,66.83
2019-03-01T03:16:46.571Z,59.70
2019-03-01T03:19:12.119Z,53.40
2019-03-01T03:21:37.712Z,56.67
2019-03-01T03:24:05.063Z,65.73
2019-03-01T03:26:30.761Z,55.23
2019-03-01T03:28:56.379Z,68.27
2019-03-01T03:31:21.975Z,68.73
2019-03-01T03:33:47.778Z,57.20
2019-03-01T03:36:15.480Z,74.40
2019-03-01T03:38:41.083Z,64.17
2019-03-01T03:41:06.632Z,69.07
2019-03-01T03:43:32.217Z,73.90
2019-03-01T03:45:58.114Z,51.73
2019-03-01T03:48:23.642Z,54.93
2019-03-01T03:50:49.281Z,53.90
2019-03-01T03:53:14.866Z,56.60
2019-03-01T03:55:40.414Z,51.00
2019-03-01T03:58:06.484Z,58.83
2019-03-01T04:00:32.332Z,61.43
2019-03-01T04:02:58.011Z,52.63
2019-03-01T04:05:23.556Z,54.07
2019-03-01T04:07:49.132Z,44.67
2019-03-01T04:10:14.822Z,50.17
2019-03-01T04:12:40.664Z,59.20
2019-03-01T04:15:13.186Z,49.83
2019-03-01T04:17:38.791Z,60.10
2019-03-01T04:20:06.153Z,64.67
2019-03-01T04:22:31.734Z,70.10
2019-03-01T04:24:57.313Z,71.70
2019-03-01T04:27:22.981Z,58.50
2019-03-01T04:29:48.623Z,63.07
2019-03-01T04:32:14.183Z,65.97
2019-03-01T04:34:39.780Z,63.10
2019-03-01T04:37:05.814Z,64.60
2019-03-01T04:39:31.444Z,57.60
2019-03-01T04:41:57.293Z,46.40
2019-03-01T04:44:22.863Z,56.47
2019-03-01T04:46:48.431Z,54.97
2019-03-01T04:49:14.488Z,54.63
2019-03-01T04:51:40.480Z,68.67
2019-03-01T04:54:07.425Z,75.77
2019-03-01T04:56:32.986Z,75.17
2019-03-01T04:58:58.507Z,59.13
2019-03-01T05:01:25.289Z,62.57
2019-03-01T05:03:50.951Z,62.30
2019-03-01T05:06:16.482Z,71.07
2019-03-01T05:08:42.063Z,74.50
2019-03-01T05:11:07.612Z,65.53
2019-03-01T05:13:33.206Z,65.23
2019-03-01T05:15:58.968Z,82.20
2019-03-01T05:18:24.523Z,74.97
2019-03-01T05:20:51.121Z,71.77
2019-03-01T05:23:16.668Z,65.93
2019-03-01T05:25:42.253Z,67.53
2019-03-01T05:28:07.900Z,62.37
2019-03-01T05:30:33.638Z,58.53
2019-03-01T05:32:59.275Z,68.27
2019-03-01T05:35:24.951Z,64.57
2019-03-01T05:37:50.549Z,79.77
2019-03-01T05:40:16.247Z,67.43
2019-03-01T05:42:42.814Z,53.83
2019-03-01T05:45:10.004Z,74.63
2019-03-01T05:47:35.608Z,70.10
2019-03-01T05:50:01.260Z,60.47
2019-03-01T05:52:27.987Z,66.00
2019-03-01T05:54:53.529Z,55.90
2019-03-01T05:57:19.127Z,54.30
2019-03-01T05:59:48.961Z,50.23
2019-03-01T06:02:25.519Z,56.50
2019-03-01T06:04:53.038Z,45.67
2019-03-01T06:07:29.283Z,56.43
2019-03-01T06:10:11.931Z,45.33
2019-03-01T06:12:45.382Z,43.63
2019-03-01T06:15:15.735Z,46.60
2019-03-01T06:18:01.675Z,46.10
2019-03-01T06:20:38.668Z,38.53
2019-03-01T06:23:09.222Z,38.90
2019-03-01T06:25:39.585Z,45.33
2019-03-01T06:28:07.388Z,48.80
2019-03-01T06:30:37.851Z,36.80
2019-03-01T06:33:08.564Z,27.00
2019-03-01T06:35:36.153Z,29.33
2019-03-01T06:38:11.446Z,27.00
2019-03-01T06:40:47.056Z,27.90
2019-03-01T06:43:18.063Z,24.50
2019-03-01T06:45:54.877Z,28.43
2019-03-01T06:48:23.442Z,28.73
2019-03-01T06:50:51.291Z,51.40
2019-03-01T06:53:16.869Z,29.40
2019-03-01T06:55:42.859Z,30.70
2019-03-01T06:58:10.012Z,35.47
2019-03-01T07:00:37.649Z,29.00
2019-03-01T07:03:03.362Z,29.70
2019-03-01T07:05:28.974Z,29.73
2019-03-01T07:07:54.519Z,33.23
2019-03-01T07:10:21.634Z,33.67
2019-03-01T07:12:47.325Z,45.50
2019-03-01T07:15:12.869Z,34.80
2019-03-01T07:17:38.450Z,33.80
2019-03-01T07:20:05.271Z,28.20
2019-03-01T07:22:31.207Z,22.00
2019-03-01T07:24:56.825Z,35.50
2019-03-01T07:27:22.609Z,22.77
2019-03-01T07:29:48.444Z,23.63
2019-03-01T07:32:14.001Z,23.73
2019-03-01T07:34:39.616Z,32.67
2019-03-01T07:37:05.345Z,18.63
2019-03-01T07:39:30.988Z,24.20
2019-03-01T07:41:56.685Z,24.40
2019-03-01T07:44:22.348Z,30.63
2019-03-01T07:46:53.081Z,41.30
2019-03-01T07:49:15.708Z,23.00
2019-03-01T07:51:41.287Z,25.23
2019-03-01T07:54:06.841Z,28.43
2019-03-01T07:56:32.420Z,29.50
2019-03-01T07:59:00.331Z,26.10
2019-03-01T08:01:29.046Z,20.53
2019-03-01T08:03:53.426Z,16.83
2019-03-01T08:06:19.155Z,30.43
2019-03-01T08:08:44.812Z,20.53
2019-03-01T08:11:10.371Z,22.37
2019-03-01T08:13:35.950Z,16.00
2019-03-01T08:16:02.410Z,15.00
2019-03-01T08:18:28.110Z,16.97
2019-03-01T08:20:53.792Z,16.33
2019-03-01T08:23:19.336Z,14.40
2019-03-01T08:25:45.067Z,17.40
2019-03-01T08:28:10.703Z,9.10
2019-03-01T08:30:36.637Z,16.57
2019-03-01T08:33:02.734Z,12.00
2019-03-01T08:35:32.065Z,12.63
2019-03-01T08:37:57.158Z,20.73
2019-03-01T08:40:22.807Z,11.23
2019-03-01T08:42:48.339Z,6.33
2019-03-01T08:45:14.872Z,13.23
2019-03-01T08:47:40.493Z,12.97
2019-03-01T08:50:10.572Z,8.00
2019-03-01T08:52:40.357Z,16.70
2019-03-01T08:55:06.386Z,12.60
2019-03-01T08:57:31.999Z,22.03
2019-03-01T08:59:57.536Z,12.40
2019-03-01T09:02:23.080Z,13.13
2019-03-01T09:04:51.247Z,22.00
2019-03-01T09:07:16.116Z,14.93
2019-03-01T09:09:41.675Z,16.10
2019-03-01T09:12:07.342Z,15.07
2019-03-01T09:14:33.027Z,9.13
2019-03-01T09:16:58.785Z,9.97
2019-03-01T09:19:25.287Z,21.73
2019-03-01T09:21:51.750Z,9.63
2019-03-01T09:24:17.275Z,9.20
2019-03-01T09:26:42.815Z,7.70
2019-03-01T09:29:08.572Z,11.10
2019-03-01T09:31:34.579Z,11.27
2019-03-01T09:34:00.169Z,10.33
2019-03-01T09:36:27.607Z,25.33
2019-03-01T09:38:53.155Z,13.23
2019-03-01T09:41:18.678Z,9.60
2019-03-01T09:43:44.290Z,8.03
2019-03-01T09:46:09.915Z,17.10
2019-03-01T09:48:35.459Z,20.53
2019-03-01T09:51:01.172Z,11.10
2019-03-01T09:53:26.795Z,7.90
2019-03-01T09:55:52.362Z,12.73
2019-03-01T09:58:19.037Z,14.77
2019-03-01T10:00:55.580Z,9.97
2019-03-01T10:03:15.029Z,11.40
2019-03-01T10:05:40.727Z,10.70
2019-03-01T10:08:07.734Z,11.70
2019-03-01T10:10:33.785Z,12.27
2019-03-01T10:12:59.396Z,7.53
2019-03-01T10:15:25.050Z,10.13
2019-03-01T10:17:50.575Z,14.73
2019-03-01T10:20:16.133Z,11.70
2019-03-01T10:22:41.902Z,7.87
2019-03-01T10:25:08.968Z,8.57
2019-03-01T10:27:34.533Z,22.47
2019-03-01T10:30:00.172Z,18.77
2019-03-01T10:32:26.072Z,9.67
2019-03-01T10:34:51.610Z,9.47
2019-03-01T10:37:17.139Z,24.20
2019-03-01T10:39:42.690Z,12.50
2019-03-01T10:42:09.329Z,8.70
2019-03-01T10:44:34.846Z,8.80
2019-03-01T10:47:00.414Z,10.90
2019-03-01T10:49:26.952Z,9.97
2019-03-01T10:51:52.506Z,13.73
2019-03-01T10:54:18.047Z,15.70
2019-03-01T10:56:43.584Z,14.20
2019-03-01T10:59:09.178Z,11.40
2019-03-01T11:01:35.023Z,20.07
2019-03-01T11:04:00.544Z,22.83
2019-03-01T11:06:26.073Z,10.73
2019-03-01T11:08:51.667Z,16.27
2019-03-01T11:11:17.204Z,15.17
2019-03-01T11:13:42.785Z,12.27
2019-03-01T11:16:08.439Z,13.43
2019-03-01T11:18:33.964Z,14.73
2019-03-01T11:20:59.547Z,17.60
2019-03-01T11:23:25.078Z,14.00
2019-03-01T11:25:50.595Z,11.40
2019-03-01T11:28:16.134Z,9.33
2019-03-01T11:30:41.726Z,11.43
2019-03-01T11:33:07.245Z,18.90
2019-03-01T11:35:32.789Z,14.37
2019-03-01T11:37:58.634Z,14.70
2019-03-01T11:40:31.067Z,18.30
2019-03-01T11:42:56.695Z,16.57
2019-03-01T11:45:22.316Z,16.93
2019-03-01T11:47:47.961Z,17.40
2019-03-01T11:50:15.554Z,13.77
2019-03-01T11:52:41.092Z,21.70
2019-03-01T11:55:06.921Z,24.23
2019-03-01T11:57:32.482Z,12.77
2019-03-01T11:59:58.039Z,19.47
2019-03-01T12:02:23.605Z,12.63
2019-03-01T12:04:49.136Z,8.73
2019-03-01T12:07:14.694Z,11.83
2019-03-01T12:09:41.655Z,15.73
2019-03-01T12:12:07.293Z,15.37
2019-03-01T12:14:32.851Z,19.83
2019-03-01T12:16:58.704Z,15.00
2019-03-01T12:19:24.255Z,11.40
2019-03-01T12:21:49.836Z,17.47
2019-03-01T12:24:16.555Z,31.77
2019-03-01T12:26:42.128Z,17.73
2019-03-01T12:29:07.772Z,16.50
2019-03-01T12:31:33.427Z,14.53
2019-03-01T12:33:58.962Z,12.83
2019-03-01T12:36:24.519Z,18.00
2019-03-01T12:38:50.143Z,12.80
2019-03-01T12:41:15.709Z,14.77
2019-03-01T12:43:41.305Z,11.63
2019-03-01T12:46:06.890Z,13.17
2019-03-01T12:48:32.445Z,18.83
2019-03-01T12:50:58.008Z,16.23
2019-03-01T12:53:23.738Z,16.50
2019-03-01T12:55:49.592Z,12.80
2019-03-01T12:58:19.323Z,13.87
2019-03-01T13:00:42.620Z,15.73
2019-03-01T13:03:09.218Z,19.90
2019-03-01T13:05:35.523Z,20.17
2019-03-01T13:08:01.352Z,16.50
2019-03-01T13:10:28.939Z,19.77
2019-03-01T13:12:58.648Z,18.37
2019-03-01T13:15:22.938Z,18.70
2019-03-01T13:17:50.008Z,22.60
2019-03-01T13:20:16.240Z,29.77
2019-03-01T13:22:41.765Z,18.40
2019-03-01T13:25:07.893Z,27.90
2019-03-01T13:27:33.572Z,15.13
2019-03-01T13:29:59.820Z,20.23
2019-03-01T13:32:25.519Z,20.53
2019-03-01T13:34:51.114Z,16.87
2019-03-01T13:37:20.097Z,23.07
2019-03-01T13:39:44.964Z,30.67
2019-03-01T13:42:13.367Z,16.57
2019-03-01T13:44:39.853Z,24.43
2019-03-01T13:47:08.656Z,19.60
2019-03-01T13:49:33.794Z,24.07
2019-03-01T13:51:59.383Z,21.00
2019-03-01T13:54:25.255Z,20.23
2019-03-01T13:56:50.869Z,18.70
2019-03-01T13:59:16.436Z,20.50
2019-03-01T14:01:41.995Z,25.50
2019-03-01T14:04:09.436Z,15.90
2019-03-01T14:06:35.100Z,16.80
2019-03-01T14:09:00.683Z,24.67
2019-03-01T14:11:26.400Z,13.70
2019-03-01T14:13:52.274Z,26.70
2019-03-01T14:16:20.423Z,26.97
2019-03-01T14:18:45.773Z,13.90
2019-03-01T14:21:11.446Z,18.47
2019-03-01T14:23:37.094Z,22.70
2019-03-01T14:26:02.773Z,26.13
2019-03-01T14:28:28.299Z,29.03
2019-03-01T14:30:54.327Z,19.03
2019-03-01T14:33:19.936Z,22.13
2019-03-01T14:35:45.518Z,28.90
2019-03-01T14:38:14.455Z,22.40
2019-03-01T14:40:48.006Z,22.23
2019-03-01T14:43:14.084Z,23.63
2019-03-01T14:45:44.732Z,19.53
2019-03-01T14:48:10.259Z,23.57
2019-03-01T14:50:40.190Z,18.90
2019-03-01T14:53:08.915Z,23.47
2019-03-01T14:55:36.589Z,17.47
2019-03-01T14:58:04.240Z,24.67
2019-03-01T15:00:32.109Z,27.03
2019-03-01T15:03:02.672Z,27.60
2019-03-01T15:05:34.580Z,24.50
2019-03-01T15:08:03.210Z,16.40
2019-03-01T15:10:32.060Z,22.80
2019-03-01T15:12:59.867Z,23.23
2019-03-01T15:15:30.014Z,25.00
2019-03-01T15:18:03.032Z,21.63
2019-03-01T15:20:28.785Z,26.23
2019-03-01T15:22:55.262Z,24.17
2019-03-01T15:25:20.810Z,24.50
2019-03-01T15:27:46.595Z,25.87
2019-03-01T15:30:16.401Z,24.67
2019-03-01T15:32:42.262Z,26.53
2019-03-01T15:35:08.452Z,25.30
2019-03-01T15:37:35.031Z,23.17
2019-03-01T15:40:01.782Z,18.27
2019-03-01T15:42:27.548Z,19.37
2019-03-01T15:44:53.516Z,28.97
2019-03-01T15:47:26.661Z,20.70
2019-03-01T15:49:57.288Z,17.07
2019-03-01T15:52:25.108Z,21.50
2019-03-01T15:57:33.793Z,26.23
2019-03-01T15:59:59.401Z,21.77
2019-03-01T16:02:26.409Z,27.50
2019-03-01T16:04:52.014Z,30.63
2019-03-01T16:07:18.075Z,27.30
2019-03-01T16:09:43.797Z,22.57
2019-03-01T16:12:10.159Z,20.73
2019-03-01T16:14:35.998Z,27.40
2019-03-01T16:17:04.732Z,26.63
2019-03-01T16:19:31.450Z,20.87
2019-03-01T16:21:57.979Z,16.53
2019-03-01T16:24:23.704Z,27.80
2019-03-01T16:26:49.347Z,25.43
2019-03-01T16:29:17.825Z,24.00
2019-03-01T16:31:43.588Z,25.07
2019-03-01T16:34:11.951Z,18.57
2019-03-01T16:36:38.523Z,16.43
2019-03-01T16:39:06.003Z,20.00
2019-03-01T16:41:35.224Z,24.93
2019-03-01T16:44:01.283Z,21.33
2019-03-01T16:46:31.295Z,15.23
2019-03-01T16:48:56.088Z,22.63
2019-03-01T16:51:23.649Z,25.87
2019-03-01T16:53:49.352Z,18.53
2019-03-01T16:56:15.083Z,26.27
2019-03-01T16:58:42.666Z,26.90
2019-03-01T17:01:08.240Z,24.43
2019-03-01T17:03:33.873Z,18.57
2019-03-01T17:06:00.075Z,29.30
2019-03-01T17:08:26.472Z,29.10
2019-03-01T17:13:41.067Z,25.10
2019-03-01T17:16:06.880Z,32.40
2019-03-01T17:18:32.924Z,31.13
2019-03-01T17:20:58.655Z,23.67
2019-03-01T17:23:24.591Z,19.30
2019-03-01T17:25:50.417Z,19.73
2019-03-01T17:28:16.809Z,26.37
2019-03-01T17:30:46.688Z,21.23
2019-03-01T17:33:12.790Z,26.30
2019-03-01T17:35:40.966Z,29.17
2019-03-01T17:38:08.311Z,32.60
2019-03-01T17:40:35.790Z,22.27
2019-03-01T17:43:01.740Z,28.70
2019-03-01T17:45:27.405Z,27.93
2019-03-01T17:47:55.203Z,28.53
2019-03-01T17:50:20.488Z,22.53
2019-03-01T17:52:46.847Z,24.43
2019-03-01T17:55:15.107Z,36.07
2019-03-01T17:57:41.013Z,29.40
2019-03-01T18:00:08.700Z,23.33
2019-03-01T18:02:34.466Z,20.77
2019-03-01T18:05:00.110Z,20.70
2019-03-01T18:07:27.188Z,26.57
2019-03-01T18:09:55.387Z,22.87
2019-03-01T18:12:21.314Z,16.10
2019-03-01T18:14:47.776Z,27.77
2019-03-01T18:17:14.914Z,25.80
2019-03-01T18:19:42.176Z,28.63
2019-03-01T18:22:08.073Z,26.00
2019-03-01T18:24:33.769Z,22.00
2019-03-01T18:26:59.510Z,23.70
2019-03-01T18:29:25.387Z,25.60
2019-03-01T18:31:53.024Z,33.50
2019-03-01T18:34:18.961Z,22.17
2019-03-01T18:36:45.825Z,19.60
2019-03-01T18:39:11.558Z,24.80
2019-03-01T18:41:39.228Z,17.97
2019-03-01T18:44:05.150Z,17.93
2019-03-01T18:46:30.886Z,19.50
2019-03-01T18:48:57.592Z,20.57
2019-03-01T18:51:23.124Z,26.13
2019-03-01T18:53:48.662Z,21.33
2019-03-01T18:56:14.268Z,20.73
2019-03-01T18:58:40.063Z,25.67
2019-03-01T19:01:10.455Z,24.80
2019-03-01T19:03:36.475Z,22.37
2019-03-01T19:06:04.698Z,22.50
2019-03-01T19:08:30.602Z,47.43
2019-03-01T19:10:59.644Z,34.00
2019-03-01T19:13:28.065Z,31.70
2019-03-01T19:15:54.765Z,33.23
2019-03-01T19:18:20.852Z,33.13
2019-03-01T19:20:47.699Z,35.50
2019-03-01T19:23:13.228Z,29.30
2019-03-01T19:25:38.809Z,28.20
2019-03-01T19:28:04.517Z,19.77
2019-03-01T19:30:30.350Z,21.07
2019-03-01T19:32:58.977Z,26.07
2019-03-01T19:35:28.561Z,32.10
2019-03-01T19:37:51.942Z,41.53
2019-03-01T19:40:22.658Z,25.33
2019-03-01T19:42:48.559Z,27.07
2019-03-01T19:45:18.202Z,36.13
2019-03-01T19:47:44.940Z,21.97
2019-03-01T19:50:11.399Z,26.33
2019-03-01T19:52:37.074Z,33.30
2019-03-01T19:55:03.980Z,24.93
2019-03-01T19:57:29.647Z,16.83
2019-03-01T19:59:55.321Z,24.03
2019-03-01T20:02:20.897Z,24.67
2019-03-01T20:04:46.577Z,21.30
2019-03-01T20:07:12.372Z,22.07
2019-03-01T20:09:39.773Z,20.43
2019-03-01T20:12:05.837Z,19.87
2019-03-01T20:14:33.815Z,26.33
2019-03-01T20:16:59.019Z,23.50
2019-03-01T20:19:24.742Z,20.53
2019-03-01T20:21:50.579Z,16.97
2019-03-01T20:24:16.211Z,25.00
2019-03-01T20:26:41.755Z,25.83
2019-03-01T20:29:07.396Z,25.23
2019-03-01T20:31:36.845Z,29.67
2019-03-01T20:34:03.330Z,23.10
2019-03-01T20:36:30.914Z,28.93
2019-03-01T20:38:57.658Z,22.20
2019-03-01T20:41:27.342Z,26.83
2019-03-01T20:43:53.185Z,21.33
2019-03-01T20:46:18.748Z,21.43
2019-03-01T20:48:44.383Z,25.30
2019-03-01T20:51:10.049Z,28.00
2019-03-01T20:53:36.685Z,13.87
2019-03-01T20:56:05.196Z,23.77
2019-03-01T20:58:30.900Z,18.67
2019-03-01T21:00:58.900Z,19.10
2019-03-01T21:03:29.789Z,14.37
2019-03-01T21:05:51.727Z,25.83
2019-03-01T21:08:19.304Z,11.83
2019-03-01T21:10:46.850Z,18.93
2019-03-01T21:13:14.461Z,17.47
2019-03-01T21:15:40.056Z,27.30
2019-03-01T21:18:05.615Z,15.37
2019-03-01T21:20:31.602Z,25.63
2019-03-01T21:22:57.196Z,21.77
2019-03-01T21:25:26.440Z,14.13
2019-03-01T21:27:52.210Z,15.10
2019-03-01T21:30:24.131Z,14.20
2019-03-01T21:32:50.794Z,18.30
2019-03-01T21:35:17.360Z,19.60
2019-03-01T21:37:42.958Z,30.37
2019-03-01T21:40:12.136Z,23.83
2019-03-01T21:42:37.705Z,20.17
2019-03-01T21:45:05.021Z,20.20
2019-03-01T21:47:30.565Z,15.63
2019-03-01T21:50:03.856Z,17.10
2019-03-01T21:52:33.979Z,14.93
2019-03-01T21:54:59.603Z,11.73
2019-03-01T21:57:27.604Z,14.77
2019-03-01T21:59:53.463Z,14.23
2019-03-01T22:02:19.315Z,21.47
2019-03-01T22:04:44.948Z,13.60
2019-03-01T22:07:10.533Z,14.87
2019-03-01T22:09:36.167Z,17.50
2019-03-01T22:12:01.848Z,14.60
2019-03-01T22:14:29.289Z,15.37
2019-03-01T22:16:57.060Z,18.00
2019-03-01T22:19:24.104Z,14.43
2019-03-01T22:21:49.738Z,16.63
2019-03-01T22:24:18.303Z,17.97
2019-03-01T22:26:46.700Z,20.97
2019-03-01T22:29:13.024Z,22.40
2019-03-01T22:31:39.732Z,16.50
2019-03-01T22:34:05.358Z,15.83
2019-03-01T22:36:31.084Z,18.80
2019-03-01T22:38:56.888Z,21.27
2019-03-01T22:41:22.551Z,9.43
2019-03-01T22:43:48.279Z,16.03
2019-03-01T22:46:13.872Z,10.33
2019-03-01T22:48:46.693Z,16.60
2019-03-01T22:51:06.872Z,11.70
2019-03-01T22:53:32.459Z,12.73
2019-03-01T22:55:58.059Z,11.93
2019-03-01T22:58:23.598Z,14.97
2019-03-01T23:00:58.805Z,17.03
2019-03-01T23:03:25.181Z,15.10
2019-03-01T23:05:52.887Z,13.37
2019-03-01T23:08:18.471Z,7.20
2019-03-01T23:10:44.505Z,16.67
2019-03-01T23:13:10.275Z,15.27
2019-03-01T23:15:36.103Z,19.47
2019-03-01T23:18:01.846Z,23.07
2019-03-01T23:20:27.655Z,12.47
2019-03-01T23:22:53.459Z,14.93
2019-03-01T23:25:19.052Z,24.30
2019-03-01T23:27:44.912Z,17.87
2019-03-01T23:30:11.156Z,15.70
2019-03-01T23:32:36.840Z,12.27
2019-03-01T23:35:02.624Z,19.27
2019-03-01T23:37:28.185Z,15.83
2019-03-01T23:39:57.135Z,15.17
2019-03-01T23:42:22.084Z,21.60
2019-03-01T23:44:54.365Z,17.70
2019-03-01T23:47:20.770Z,14.10
2019-03-01T23:49:46.419Z,16.63
2019-03-01T23:52:12.120Z,14.53
2019-03-01T23:54:40.710Z,18.43
2019-03-01T23:57:05.650Z,14.27
2019-03-01T23:59:38.058Z,19.40
